sensor_id;sensor_type;location;lat;lon;timestamp;P1;durP1;ratioP1;P2;durP2;ratioP2
55015;SDS011;40919;43.236;21.590;2023-02-01T00:00:10;18.27;;;9.20;;
55015;SDS011;40919;43.236;21.590;2023-02-01T00:02:36;26.55;;;12.68;;
55015;SDS011;40919;43.236;21.590;2023-02-01T00:05:06;18.30;;;10.80;;
55015;SDS011;40919;43.236;21.590;2023-02-01T00:07:33;20.50;;;10.38;;
55015;SDS011;40919;43.236;21.590;2023-02-01T00:10:00;14.07;;;7.60;;
55015;SDS011;40919;43.236;21.590;2023-02-01T00:12:25;11.77;;;6.82;;
55015;SDS011;40919;43.236;21.590;2023-02-01T00:14:51;14.77;;;8.07;;
55015;SDS011;40919;43.236;21.590;2023-02-01T00:17:17;10.85;;;5.82;;
55015;SDS011;40919;43.236;21.590;2023-02-01T00:19:43;14.85;;;6.80;;
55015;SDS011;40919;43.236;21.590;2023-02-01T00:22:08;14.57;;;8.07;;
55015;SDS011;40919;43.236;21.590;2023-02-01T00:24:34;15.82;;;8.30;;
55015;SDS011;40919;43.236;21.590;2023-02-01T00:27:00;17.33;;;8.88;;
55015;SDS011;40919;43.236;21.590;2023-02-01T00:29:25;16.50;;;7.85;;
55015;SDS011;40919;43.236;21.590;2023-02-01T00:31:51;15.73;;;8.27;;
55015;SDS011;40919;43.236;21.590;2023-02-01T00:34:17;20.35;;;8.48;;
55015;SDS011;40919;43.236;21.590;2023-02-01T00:36:43;20.45;;;9.02;;
55015;SDS011;40919;43.236;21.590;2023-02-01T00:39:09;20.02;;;8.23;;
55015;SDS011;40919;43.236;21.590;2023-02-01T00:41:36;13.20;;;7.20;;
55015;SDS011;40919;43.236;21.590;2023-02-01T00:44:01;10.98;;;6.22;;
55015;SDS011;40919;43.236;21.590;2023-02-01T00:46:28;12.02;;;6.03;;
55015;SDS011;40919;43.236;21.590;2023-02-01T00:48:54;14.55;;;7.72;;
55015;SDS011;40919;43.236;21.590;2023-02-01T00:51:22;14.02;;;8.18;;
55015;SDS011;40919;43.236;21.590;2023-02-01T00:56:18;9.52;;;5.60;;
55015;SDS011;40919;43.236;21.590;2023-02-01T00:58:44;12.07;;;5.97;;
55015;SDS011;40919;43.236;21.590;2023-02-01T01:01:12;14.85;;;5.95;;
55015;SDS011;40919;43.236;21.590;2023-02-01T01:03:43;9.70;;;5.03;;
55015;SDS011;40919;43.236;21.590;2023-02-01T01:06:13;14.18;;;6.43;;
55015;SDS011;40919;43.236;21.590;2023-02-01T01:08:41;12.82;;;6.25;;
55015;SDS011;40919;43.236;21.590;2023-02-01T01:11:11;13.70;;;7.90;;
55015;SDS011;40919;43.236;21.590;2023-02-01T01:13:40;15.02;;;6.57;;
55015;SDS011;40919;43.236;21.590;2023-02-01T01:16:07;17.50;;;8.25;;
55015;SDS011;40919;43.236;21.590;2023-02-01T01:18:34;13.98;;;6.93;;
55015;SDS011;40919;43.236;21.590;2023-02-01T01:21:01;17.90;;;7.95;;
55015;SDS011;40919;43.236;21.590;2023-02-01T01:23:28;14.75;;;7.88;;
55015;SDS011;40919;43.236;21.590;2023-02-01T01:25:54;15.32;;;6.85;;
55015;SDS011;40919;43.236;21.590;2023-02-01T01:28:20;13.73;;;8.13;;
55015;SDS011;40919;43.236;21.590;2023-02-01T01:30:46;16.15;;;8.27;;
55015;SDS011;40919;43.236;21.590;2023-02-01T01:33:12;12.45;;;6.50;;
55015;SDS011;40919;43.236;21.590;2023-02-01T01:35:38;17.85;;;8.65;;
55015;SDS011;40919;43.236;21.590;2023-02-01T01:38:03;17.25;;;7.88;;
55015;SDS011;40919;43.236;21.590;2023-02-01T01:40:30;17.45;;;9.13;;
55015;SDS011;40919;43.236;21.590;2023-02-01T01:42:56;13.70;;;7.72;;
55015;SDS011;40919;43.236;21.590;2023-02-01T01:45:30;15.85;;;7.82;;
55015;SDS011;40919;43.236;21.590;2023-02-01T01:48:07;12.85;;;6.57;;
55015;SDS011;40919;43.236;21.590;2023-02-01T01:50:44;20.35;;;10.00;;
55015;SDS011;40919;43.236;21.590;2023-02-01T01:53:15;14.68;;;7.10;;
55015;SDS011;40919;43.236;21.590;2023-02-01T01:55:44;17.50;;;8.57;;
55015;SDS011;40919;43.236;21.590;2023-02-01T01:58:17;16.00;;;6.93;;
55015;SDS011;40919;43.236;21.590;2023-02-01T02:00:46;17.90;;;9.45;;
55015;SDS011;40919;43.236;21.590;2023-02-01T02:03:25;18.95;;;9.88;;
55015;SDS011;40919;43.236;21.590;2023-02-01T02:05:55;12.27;;;7.32;;
55015;SDS011;40919;43.236;21.590;2023-02-01T02:08:24;14.90;;;7.63;;
55015;SDS011;40919;43.236;21.590;2023-02-01T02:10:51;17.33;;;7.47;;
55015;SDS011;40919;43.236;21.590;2023-02-01T02:13:31;11.27;;;5.90;;
55015;SDS011;40919;43.236;21.590;2023-02-01T02:27:03;15.73;;;7.50;;
55015;SDS011;40919;43.236;21.590;2023-02-01T02:35:37;12.70;;;5.15;;
55015;SDS011;40919;43.236;21.590;2023-02-01T02:38:36;9.25;;;5.07;;
55015;SDS011;40919;43.236;21.590;2023-02-01T02:41:19;8.40;;;5.18;;
55015;SDS011;40919;43.236;21.590;2023-02-01T02:47:33;8.23;;;4.35;;
55015;SDS011;40919;43.236;21.590;2023-02-01T02:50:29;9.32;;;4.85;;
55015;SDS011;40919;43.236;21.590;2023-02-01T02:53:30;12.80;;;6.72;;
55015;SDS011;40919;43.236;21.590;2023-02-01T02:56:24;17.23;;;8.70;;
55015;SDS011;40919;43.236;21.590;2023-02-01T02:59:11;18.10;;;9.73;;
55015;SDS011;40919;43.236;21.590;2023-02-01T03:01:57;20.63;;;11.18;;
55015;SDS011;40919;43.236;21.590;2023-02-01T03:04:42;26.48;;;12.30;;
55015;SDS011;40919;43.236;21.590;2023-02-01T03:13:12;38.85;;;17.55;;
55015;SDS011;40919;43.236;21.590;2023-02-01T03:18:55;15.43;;;8.90;;
55015;SDS011;40919;43.236;21.590;2023-02-01T03:24:25;30.48;;;12.82;;
55015;SDS011;40919;43.236;21.590;2023-02-01T03:27:02;30.83;;;13.75;;
55015;SDS011;40919;43.236;21.590;2023-02-01T03:29:46;34.60;;;14.30;;
55015;SDS011;40919;43.236;21.590;2023-02-01T03:32:16;23.10;;;8.85;;
55015;SDS011;40919;43.236;21.590;2023-02-01T03:34:43;26.75;;;10.93;;
55015;SDS011;40919;43.236;21.590;2023-02-01T03:37:10;21.88;;;9.35;;
55015;SDS011;40919;43.236;21.590;2023-02-01T03:39:48;14.57;;;6.72;;
55015;SDS011;40919;43.236;21.590;2023-02-01T03:42:23;11.15;;;5.13;;
55015;SDS011;40919;43.236;21.590;2023-02-01T03:47:38;39.83;;;21.23;;
55015;SDS011;40919;43.236;21.590;2023-02-01T03:50:08;53.72;;;28.98;;
55015;SDS011;40919;43.236;21.590;2023-02-01T03:52:41;42.83;;;22.73;;
55015;SDS011;40919;43.236;21.590;2023-02-01T03:55:07;58.08;;;30.83;;
55015;SDS011;40919;43.236;21.590;2023-02-01T03:57:36;49.95;;;26.80;;
55015;SDS011;40919;43.236;21.590;2023-02-01T04:00:21;35.42;;;19.45;;
55015;SDS011;40919;43.236;21.590;2023-02-01T04:02:49;34.97;;;20.50;;
55015;SDS011;40919;43.236;21.590;2023-02-01T04:05:16;33.15;;;18.40;;
55015;SDS011;40919;43.236;21.590;2023-02-01T04:07:42;34.13;;;19.05;;
55015;SDS011;40919;43.236;21.590;2023-02-01T04:10:09;29.40;;;16.40;;
55015;SDS011;40919;43.236;21.590;2023-02-01T04:12:35;19.80;;;13.73;;
55015;SDS011;40919;43.236;21.590;2023-02-01T04:15:01;28.23;;;13.57;;
55015;SDS011;40919;43.236;21.590;2023-02-01T04:17:28;20.35;;;12.68;;
55015;SDS011;40919;43.236;21.590;2023-02-01T04:19:54;23.08;;;15.38;;
55015;SDS011;40919;43.236;21.590;2023-02-01T04:22:20;17.77;;;12.88;;
55015;SDS011;40919;43.236;21.590;2023-02-01T04:24:45;19.75;;;13.18;;
55015;SDS011;40919;43.236;21.590;2023-02-01T04:27:11;16.65;;;11.68;;
55015;SDS011;40919;43.236;21.590;2023-02-01T04:29:37;20.98;;;12.05;;
55015;SDS011;40919;43.236;21.590;2023-02-01T04:32:03;19.73;;;14.38;;
55015;SDS011;40919;43.236;21.590;2023-02-01T04:34:30;19.52;;;12.48;;
55015;SDS011;40919;43.236;21.590;2023-02-01T04:36:55;22.88;;;14.18;;
55015;SDS011;40919;43.236;21.590;2023-02-01T04:39:21;22.75;;;14.02;;
55015;SDS011;40919;43.236;21.590;2023-02-01T04:41:47;20.73;;;13.95;;
55015;SDS011;40919;43.236;21.590;2023-02-01T04:44:13;21.33;;;13.90;;
55015;SDS011;40919;43.236;21.590;2023-02-01T04:46:41;33.95;;;27.15;;
55015;SDS011;40919;43.236;21.590;2023-02-01T04:49:08;49.95;;;35.88;;
55015;SDS011;40919;43.236;21.590;2023-02-01T04:51:34;37.10;;;24.70;;
55015;SDS011;40919;43.236;21.590;2023-02-01T04:54:00;29.35;;;19.45;;
55015;SDS011;40919;43.236;21.590;2023-02-01T04:56:25;27.17;;;17.60;;
55015;SDS011;40919;43.236;21.590;2023-02-01T04:58:51;23.73;;;16.27;;
55015;SDS011;40919;43.236;21.590;2023-02-01T05:01:17;21.60;;;14.52;;
55015;SDS011;40919;43.236;21.590;2023-02-01T05:03:43;19.05;;;13.65;;
55015;SDS011;40919;43.236;21.590;2023-02-01T05:06:09;20.77;;;15.15;;
55015;SDS011;40919;43.236;21.590;2023-02-01T05:08:34;29.67;;;20.13;;
55015;SDS011;40919;43.236;21.590;2023-02-01T05:11:00;28.00;;;17.27;;
55015;SDS011;40919;43.236;21.590;2023-02-01T05:13:29;21.98;;;15.38;;
55015;SDS011;40919;43.236;21.590;2023-02-01T05:16:14;18.80;;;12.63;;
55015;SDS011;40919;43.236;21.590;2023-02-01T05:18:40;19.13;;;12.55;;
55015;SDS011;40919;43.236;21.590;2023-02-01T05:21:06;20.33;;;12.77;;
55015;SDS011;40919;43.236;21.590;2023-02-01T05:23:32;22.45;;;14.90;;
55015;SDS011;40919;43.236;21.590;2023-02-01T05:26:18;29.95;;;20.33;;
55015;SDS011;40919;43.236;21.590;2023-02-01T05:28:44;51.95;;;31.88;;
55015;SDS011;40919;43.236;21.590;2023-02-01T05:31:10;53.45;;;32.67;;
55015;SDS011;40919;43.236;21.590;2023-02-01T05:33:36;44.08;;;28.52;;
55015;SDS011;40919;43.236;21.590;2023-02-01T05:36:02;45.83;;;31.02;;
55015;SDS011;40919;43.236;21.590;2023-02-01T05:38:28;46.85;;;34.60;;
55015;SDS011;40919;43.236;21.590;2023-02-01T05:40:57;52.00;;;32.92;;
55015;SDS011;40919;43.236;21.590;2023-02-01T05:43:23;67.13;;;40.83;;
55015;SDS011;40919;43.236;21.590;2023-02-01T05:45:48;89.70;;;56.08;;
55015;SDS011;40919;43.236;21.590;2023-02-01T05:48:16;90.70;;;57.20;;
55015;SDS011;40919;43.236;21.590;2023-02-01T05:50:42;88.93;;;56.88;;
55015;SDS011;40919;43.236;21.590;2023-02-01T05:53:08;103.55;;;63.38;;
55015;SDS011;40919;43.236;21.590;2023-02-01T05:55:34;107.32;;;67.15;;
55015;SDS011;40919;43.236;21.590;2023-02-01T05:58:00;108.03;;;67.47;;
55015;SDS011;40919;43.236;21.590;2023-02-01T06:00:26;122.07;;;76.32;;
55015;SDS011;40919;43.236;21.590;2023-02-01T06:02:52;125.47;;;73.95;;
55015;SDS011;40919;43.236;21.590;2023-02-01T06:05:18;112.97;;;69.25;;
55015;SDS011;40919;43.236;21.590;2023-02-01T06:07:43;119.05;;;73.40;;
55015;SDS011;40919;43.236;21.590;2023-02-01T06:10:09;120.95;;;70.28;;
55015;SDS011;40919;43.236;21.590;2023-02-01T06:12:35;135.38;;;81.22;;
55015;SDS011;40919;43.236;21.590;2023-02-01T06:15:01;110.20;;;66.72;;
55015;SDS011;40919;43.236;21.590;2023-02-01T06:17:27;79.72;;;49.75;;
55015;SDS011;40919;43.236;21.590;2023-02-01T06:19:53;78.38;;;49.22;;
55015;SDS011;40919;43.236;21.590;2023-02-01T06:22:19;75.47;;;46.05;;
55015;SDS011;40919;43.236;21.590;2023-02-01T06:24:44;76.68;;;50.22;;
55015;SDS011;40919;43.236;21.590;2023-02-01T06:27:10;79.00;;;50.22;;
55015;SDS011;40919;43.236;21.590;2023-02-01T06:29:36;86.10;;;56.28;;
55015;SDS011;40919;43.236;21.590;2023-02-01T06:32:02;100.07;;;62.03;;
55015;SDS011;40919;43.236;21.590;2023-02-01T06:34:28;103.65;;;63.95;;
55015;SDS011;40919;43.236;21.590;2023-02-01T06:36:54;123.45;;;69.65;;
55015;SDS011;40919;43.236;21.590;2023-02-01T06:39:20;123.63;;;72.75;;
55015;SDS011;40919;43.236;21.590;2023-02-01T06:41:46;120.72;;;70.70;;
55015;SDS011;40919;43.236;21.590;2023-02-01T06:44:13;109.68;;;65.82;;
55015;SDS011;40919;43.236;21.590;2023-02-01T06:46:39;70.55;;;43.80;;
55015;SDS011;40919;43.236;21.590;2023-02-01T06:49:04;97.38;;;67.75;;
55015;SDS011;40919;43.236;21.590;2023-02-01T06:51:30;60.60;;;42.08;;
55015;SDS011;40919;43.236;21.590;2023-02-01T06:53:56;88.93;;;63.65;;
55015;SDS011;40919;43.236;21.590;2023-02-01T06:56:22;88.25;;;58.20;;
55015;SDS011;40919;43.236;21.590;2023-02-01T06:58:48;78.78;;;51.83;;
55015;SDS011;40919;43.236;21.590;2023-02-01T07:01:14;76.95;;;47.65;;
55015;SDS011;40919;43.236;21.590;2023-02-01T07:03:40;74.60;;;47.05;;
55015;SDS011;40919;43.236;21.590;2023-02-01T07:06:07;72.57;;;48.25;;
55015;SDS011;40919;43.236;21.590;2023-02-01T07:08:34;77.97;;;47.60;;
55015;SDS011;40919;43.236;21.590;2023-02-01T07:11:02;81.75;;;49.60;;
55015;SDS011;40919;43.236;21.590;2023-02-01T07:13:33;66.68;;;43.97;;
55015;SDS011;40919;43.236;21.590;2023-02-01T07:16:03;68.32;;;44.50;;
55015;SDS011;40919;43.236;21.590;2023-02-01T07:18:31;67.35;;;43.90;;
55015;SDS011;40919;43.236;21.590;2023-02-01T07:20:57;70.75;;;43.00;;
55015;SDS011;40919;43.236;21.590;2023-02-01T07:23:23;148.07;;;85.15;;
55015;SDS011;40919;43.236;21.590;2023-02-01T07:25:54;91.07;;;58.72;;
55015;SDS011;40919;43.236;21.590;2023-02-01T07:28:21;77.22;;;49.80;;
55015;SDS011;40919;43.236;21.590;2023-02-01T07:30:47;65.40;;;41.00;;
55015;SDS011;40919;43.236;21.590;2023-02-01T07:33:22;78.80;;;50.40;;
55015;SDS011;40919;43.236;21.590;2023-02-01T07:35:49;84.38;;;55.50;;
55015;SDS011;40919;43.236;21.590;2023-02-01T07:38:15;88.85;;;62.65;;
55015;SDS011;40919;43.236;21.590;2023-02-01T07:40:42;88.90;;;59.97;;
55015;SDS011;40919;43.236;21.590;2023-02-01T07:43:08;76.00;;;50.25;;
55015;SDS011;40919;43.236;21.590;2023-02-01T07:45:34;84.13;;;53.72;;
55015;SDS011;40919;43.236;21.590;2023-02-01T07:48:00;80.85;;;52.25;;
55015;SDS011;40919;43.236;21.590;2023-02-01T07:50:27;78.85;;;51.17;;
55015;SDS011;40919;43.236;21.590;2023-02-01T07:52:53;79.30;;;51.20;;
55015;SDS011;40919;43.236;21.590;2023-02-01T07:55:19;57.08;;;36.53;;
55015;SDS011;40919;43.236;21.590;2023-02-01T07:57:46;51.60;;;36.88;;
55015;SDS011;40919;43.236;21.590;2023-02-01T08:00:12;79.90;;;44.35;;
55015;SDS011;40919;43.236;21.590;2023-02-01T08:02:57;145.65;;;68.82;;
55015;SDS011;40919;43.236;21.590;2023-02-01T08:05:24;106.45;;;56.97;;
55015;SDS011;40919;43.236;21.590;2023-02-01T08:07:50;67.68;;;41.20;;
55015;SDS011;40919;43.236;21.590;2023-02-01T08:10:16;52.28;;;32.58;;
55015;SDS011;40919;43.236;21.590;2023-02-01T08:12:43;35.92;;;23.20;;
55015;SDS011;40919;43.236;21.590;2023-02-01T08:15:15;28.90;;;17.45;;
55015;SDS011;40919;43.236;21.590;2023-02-01T08:17:48;27.85;;;17.33;;
55015;SDS011;40919;43.236;21.590;2023-02-01T08:22:40;22.58;;;12.48;;
55015;SDS011;40919;43.236;21.590;2023-02-01T08:25:05;17.85;;;13.07;;
55015;SDS011;40919;43.236;21.590;2023-02-01T08:27:32;15.73;;;11.23;;
55015;SDS011;40919;43.236;21.590;2023-02-01T08:29:58;19.42;;;11.35;;
55015;SDS011;40919;43.236;21.590;2023-02-01T08:32:25;15.70;;;11.77;;
55015;SDS011;40919;43.236;21.590;2023-02-01T08:34:51;21.02;;;13.30;;
55015;SDS011;40919;43.236;21.590;2023-02-01T08:37:17;24.75;;;17.33;;
55015;SDS011;40919;43.236;21.590;2023-02-01T08:39:43;42.47;;;29.38;;
55015;SDS011;40919;43.236;21.590;2023-02-01T08:42:09;37.38;;;28.50;;
55015;SDS011;40919;43.236;21.590;2023-02-01T08:44:54;62.72;;;33.60;;
55015;SDS011;40919;43.236;21.590;2023-02-01T08:47:20;50.75;;;25.70;;
55015;SDS011;40919;43.236;21.590;2023-02-01T08:49:46;33.47;;;22.95;;
55015;SDS011;40919;43.236;21.590;2023-02-01T08:52:12;34.97;;;22.80;;
55015;SDS011;40919;43.236;21.590;2023-02-01T08:54:37;32.85;;;20.55;;
55015;SDS011;40919;43.236;21.590;2023-02-01T08:57:05;33.30;;;23.20;;
55015;SDS011;40919;43.236;21.590;2023-02-01T08:59:30;27.92;;;19.27;;
55015;SDS011;40919;43.236;21.590;2023-02-01T09:01:56;35.90;;;24.30;;
55015;SDS011;40919;43.236;21.590;2023-02-01T09:04:22;43.13;;;30.92;;
55015;SDS011;40919;43.236;21.590;2023-02-01T09:06:48;30.33;;;21.20;;
55015;SDS011;40919;43.236;21.590;2023-02-01T09:09:13;38.85;;;26.30;;
55015;SDS011;40919;43.236;21.590;2023-02-01T09:11:39;69.25;;;44.67;;
55015;SDS011;40919;43.236;21.590;2023-02-01T09:14:05;52.30;;;35.90;;
55015;SDS011;40919;43.236;21.590;2023-02-01T09:16:31;42.80;;;29.60;;
55015;SDS011;40919;43.236;21.590;2023-02-01T09:18:57;42.10;;;26.73;;
55015;SDS011;40919;43.236;21.590;2023-02-01T09:21:23;31.40;;;22.90;;
55015;SDS011;40919;43.236;21.590;2023-02-01T09:23:50;30.20;;;21.13;;
55015;SDS011;40919;43.236;21.590;2023-02-01T09:26:16;37.55;;;25.65;;
55015;SDS011;40919;43.236;21.590;2023-02-01T09:28:42;30.65;;;22.73;;
55015;SDS011;40919;43.236;21.590;2023-02-01T09:31:08;65.00;;;41.83;;
55015;SDS011;40919;43.236;21.590;2023-02-01T09:33:34;41.40;;;27.60;;
55015;SDS011;40919;43.236;21.590;2023-02-01T09:36:01;25.65;;;17.48;;
55015;SDS011;40919;43.236;21.590;2023-02-01T09:38:29;24.55;;;17.92;;
55015;SDS011;40919;43.236;21.590;2023-02-01T09:40:56;23.85;;;15.10;;
55015;SDS011;40919;43.236;21.590;2023-02-01T09:43:34;21.17;;;12.88;;
55015;SDS011;40919;43.236;21.590;2023-02-01T09:46:23;22.45;;;13.02;;
55015;SDS011;40919;43.236;21.590;2023-02-01T09:48:52;22.63;;;14.00;;
55015;SDS011;40919;43.236;21.590;2023-02-01T09:51:21;22.92;;;15.23;;
55015;SDS011;40919;43.236;21.590;2023-02-01T09:56:48;26.00;;;16.25;;
55015;SDS011;40919;43.236;21.590;2023-02-01T10:01:50;25.60;;;18.20;;
55015;SDS011;40919;43.236;21.590;2023-02-01T10:04:16;32.90;;;20.00;;
55015;SDS011;40919;43.236;21.590;2023-02-01T10:20:47;22.08;;;14.70;;
55015;SDS011;40919;43.236;21.590;2023-02-01T10:26:19;21.83;;;13.30;;
55015;SDS011;40919;43.236;21.590;2023-02-01T10:28:52;26.05;;;17.80;;
55015;SDS011;40919;43.236;21.590;2023-02-01T10:31:28;32.80;;;22.55;;
55015;SDS011;40919;43.236;21.590;2023-02-01T10:33:57;36.22;;;21.40;;
55015;SDS011;40919;43.236;21.590;2023-02-01T10:36:29;39.22;;;23.17;;
55015;SDS011;40919;43.236;21.590;2023-02-01T10:38:59;32.75;;;19.70;;
55015;SDS011;40919;43.236;21.590;2023-02-01T10:41:30;35.47;;;22.40;;
55015;SDS011;40919;43.236;21.590;2023-02-01T10:43:58;45.50;;;26.67;;
55015;SDS011;40919;43.236;21.590;2023-02-01T10:46:29;31.73;;;19.30;;
55015;SDS011;40919;43.236;21.590;2023-02-01T10:48:56;37.47;;;23.02;;
55015;SDS011;40919;43.236;21.590;2023-02-01T10:51:39;37.83;;;19.95;;
55015;SDS011;40919;43.236;21.590;2023-02-01T10:54:11;49.95;;;26.25;;
55015;SDS011;40919;43.236;21.590;2023-02-01T10:56:42;32.45;;;19.00;;
55015;SDS011;40919;43.236;21.590;2023-02-01T10:59:17;29.73;;;19.85;;
55015;SDS011;40919;43.236;21.590;2023-02-01T11:01:46;31.70;;;20.98;;
55015;SDS011;40919;43.236;21.590;2023-02-01T11:04:17;28.77;;;19.17;;
55015;SDS011;40919;43.236;21.590;2023-02-01T11:09:39;25.42;;;16.58;;
55015;SDS011;40919;43.236;21.590;2023-02-01T11:12:27;29.80;;;20.13;;
55015;SDS011;40919;43.236;21.590;2023-02-01T11:15:01;16.60;;;10.77;;
55015;SDS011;40919;43.236;21.590;2023-02-01T11:17:45;11.85;;;8.32;;
55015;SDS011;40919;43.236;21.590;2023-02-01T11:20:20;23.02;;;14.10;;
55015;SDS011;40919;43.236;21.590;2023-02-01T11:23:10;26.80;;;18.00;;
55015;SDS011;40919;43.236;21.590;2023-02-01T11:25:47;21.27;;;13.95;;
55015;SDS011;40919;43.236;21.590;2023-02-01T11:28:15;29.40;;;18.73;;
55015;SDS011;40919;43.236;21.590;2023-02-01T11:30:43;38.58;;;27.20;;
55015;SDS011;40919;43.236;21.590;2023-02-01T11:33:15;35.67;;;23.85;;
55015;SDS011;40919;43.236;21.590;2023-02-01T11:35:43;29.63;;;20.13;;
55015;SDS011;40919;43.236;21.590;2023-02-01T11:38:20;26.23;;;18.52;;
55015;SDS011;40919;43.236;21.590;2023-02-01T11:40:50;29.13;;;18.70;;
55015;SDS011;40919;43.236;21.590;2023-02-01T11:43:26;28.70;;;17.92;;
55015;SDS011;40919;43.236;21.590;2023-02-01T11:45:57;31.10;;;19.23;;
55015;SDS011;40919;43.236;21.590;2023-02-01T11:48:31;28.60;;;18.70;;
55015;SDS011;40919;43.236;21.590;2023-02-01T11:51:08;20.88;;;13.05;;
55015;SDS011;40919;43.236;21.590;2023-02-01T11:59:23;20.42;;;12.48;;
55015;SDS011;40919;43.236;21.590;2023-02-01T12:02:02;20.70;;;12.82;;
55015;SDS011;40919;43.236;21.590;2023-02-01T12:07:20;19.10;;;13.52;;
55015;SDS011;40919;43.236;21.590;2023-02-01T12:29:48;17.77;;;10.80;;
55015;SDS011;40919;43.236;21.590;2023-02-01T12:41:19;45.33;;;30.38;;
55015;SDS011;40919;43.236;21.590;2023-02-01T12:47:03;12.00;;;8.27;;
55015;SDS011;40919;43.236;21.590;2023-02-01T12:52:48;9.57;;;5.47;;
55015;SDS011;40919;43.236;21.590;2023-02-01T12:57:42;17.30;;;10.50;;
55015;SDS011;40919;43.236;21.590;2023-02-01T13:02:52;8.07;;;4.43;;
55015;SDS011;40919;43.236;21.590;2023-02-01T13:05:35;11.23;;;6.35;;
55015;SDS011;40919;43.236;21.590;2023-02-01T13:08:12;8.02;;;4.13;;
55015;SDS011;40919;43.236;21.590;2023-02-01T13:13:37;17.48;;;10.52;;
55015;SDS011;40919;43.236;21.590;2023-02-01T13:19:03;11.52;;;6.38;;
55015;SDS011;40919;43.236;21.590;2023-02-01T13:21:45;11.20;;;6.63;;
55015;SDS011;40919;43.236;21.590;2023-02-01T13:24:48;10.63;;;6.25;;
55015;SDS011;40919;43.236;21.590;2023-02-01T13:27:10;10.00;;;6.55;;
55015;SDS011;40919;43.236;21.590;2023-02-01T13:29:37;14.88;;;9.73;;
55015;SDS011;40919;43.236;21.590;2023-02-01T13:34:46;11.60;;;5.83;;
55015;SDS011;40919;43.236;21.590;2023-02-01T13:43:00;8.85;;;5.25;;
55015;SDS011;40919;43.236;21.590;2023-02-01T13:45:28;28.75;;;14.68;;
55015;SDS011;40919;43.236;21.590;2023-02-01T13:47:55;22.83;;;11.65;;
55015;SDS011;40919;43.236;21.590;2023-02-01T13:55:37;21.38;;;13.30;;
55015;SDS011;40919;43.236;21.590;2023-02-01T13:58:11;16.48;;;11.35;;
55015;SDS011;40919;43.236;21.590;2023-02-01T14:00:40;13.73;;;9.40;;
55015;SDS011;40919;43.236;21.590;2023-02-01T14:03:15;17.70;;;12.90;;
55015;SDS011;40919;43.236;21.590;2023-02-01T14:08:10;9.45;;;6.22;;
55015;SDS011;40919;43.236;21.590;2023-02-01T14:13:20;13.40;;;9.88;;
55015;SDS011;40919;43.236;21.590;2023-02-01T14:31:47;19.65;;;11.68;;
55015;SDS011;40919;43.236;21.590;2023-02-01T14:47:47;17.83;;;10.48;;
55015;SDS011;40919;43.236;21.590;2023-02-01T14:55:35;19.50;;;13.10;;
55015;SDS011;40919;43.236;21.590;2023-02-01T14:58:05;27.88;;;17.58;;
55015;SDS011;40919;43.236;21.590;2023-02-01T15:00:46;17.80;;;11.68;;
55015;SDS011;40919;43.236;21.590;2023-02-01T15:06:01;12.35;;;7.60;;
55015;SDS011;40919;43.236;21.590;2023-02-01T15:08:31;17.42;;;12.25;;
55015;SDS011;40919;43.236;21.590;2023-02-01T15:11:05;28.20;;;15.98;;
55015;SDS011;40919;43.236;21.590;2023-02-01T15:18:27;31.08;;;20.92;;
55015;SDS011;40919;43.236;21.590;2023-02-01T15:20:57;30.42;;;19.45;;
55015;SDS011;40919;43.236;21.590;2023-02-01T15:23:26;27.20;;;17.95;;
55015;SDS011;40919;43.236;21.590;2023-02-01T15:25:53;23.38;;;17.77;;
55015;SDS011;40919;43.236;21.590;2023-02-01T15:28:19;22.25;;;17.70;;
55015;SDS011;40919;43.236;21.590;2023-02-01T15:31:01;22.98;;;16.92;;
55015;SDS011;40919;43.236;21.590;2023-02-01T15:33:29;21.58;;;14.02;;
55015;SDS011;40919;43.236;21.590;2023-02-01T15:38:35;20.02;;;13.93;;
55015;SDS011;40919;43.236;21.590;2023-02-01T15:41:04;22.77;;;15.60;;
55015;SDS011;40919;43.236;21.590;2023-02-01T15:43:31;28.88;;;19.40;;
55015;SDS011;40919;43.236;21.590;2023-02-01T15:46:01;162.88;;;88.25;;
55015;SDS011;40919;43.236;21.590;2023-02-01T15:48:34;38.67;;;28.52;;
55015;SDS011;40919;43.236;21.590;2023-02-01T15:51:03;27.20;;;20.50;;
55015;SDS011;40919;43.236;21.590;2023-02-01T15:53:29;42.20;;;28.52;;
55015;SDS011;40919;43.236;21.590;2023-02-01T15:56:00;45.00;;;28.70;;
55015;SDS011;40919;43.236;21.590;2023-02-01T15:58:28;48.80;;;33.47;;
55015;SDS011;40919;43.236;21.590;2023-02-01T16:00:55;31.33;;;21.17;;
55015;SDS011;40919;43.236;21.590;2023-02-01T16:06:07;50.47;;;28.30;;
55015;SDS011;40919;43.236;21.590;2023-02-01T16:08:55;73.07;;;46.70;;
55015;SDS011;40919;43.236;21.590;2023-02-01T16:11:22;76.78;;;48.88;;
55015;SDS011;40919;43.236;21.590;2023-02-01T16:14:04;92.10;;;58.30;;
55015;SDS011;40919;43.236;21.590;2023-02-01T16:16:30;98.88;;;65.25;;
55015;SDS011;40919;43.236;21.590;2023-02-01T16:18:56;110.18;;;72.70;;
55015;SDS011;40919;43.236;21.590;2023-02-01T16:21:22;103.25;;;64.43;;
55015;SDS011;40919;43.236;21.590;2023-02-01T16:23:49;115.97;;;74.07;;
55015;SDS011;40919;43.236;21.590;2023-02-01T16:26:16;102.78;;;67.32;;
55015;SDS011;40919;43.236;21.590;2023-02-01T16:28:42;93.75;;;63.28;;
55015;SDS011;40919;43.236;21.590;2023-02-01T16:31:17;85.40;;;58.78;;
55015;SDS011;40919;43.236;21.590;2023-02-01T16:33:47;93.97;;;59.83;;
55015;SDS011;40919;43.236;21.590;2023-02-01T16:36:14;81.95;;;55.72;;
55015;SDS011;40919;43.236;21.590;2023-02-01T16:38:41;66.05;;;47.28;;
55015;SDS011;40919;43.236;21.590;2023-02-01T16:41:08;87.07;;;57.00;;
55015;SDS011;40919;43.236;21.590;2023-02-01T16:43:37;116.80;;;73.07;;
55015;SDS011;40919;43.236;21.590;2023-02-01T16:46:03;83.18;;;56.35;;
55015;SDS011;40919;43.236;21.590;2023-02-01T16:48:35;109.60;;;63.40;;
55015;SDS011;40919;43.236;21.590;2023-02-01T16:53:29;116.60;;;68.90;;
55015;SDS011;40919;43.236;21.590;2023-02-01T16:55:56;64.97;;;41.75;;
55015;SDS011;40919;43.236;21.590;2023-02-01T16:58:25;60.75;;;39.38;;
55015;SDS011;40919;43.236;21.590;2023-02-01T17:00:52;75.63;;;46.35;;
55015;SDS011;40919;43.236;21.590;2023-02-01T17:03:19;96.88;;;62.70;;
55015;SDS011;40919;43.236;21.590;2023-02-01T17:05:50;126.10;;;81.40;;
55015;SDS011;40919;43.236;21.590;2023-02-01T17:08:18;110.35;;;72.55;;
55015;SDS011;40919;43.236;21.590;2023-02-01T17:10:58;122.65;;;83.00;;
55015;SDS011;40919;43.236;21.590;2023-02-01T17:13:24;161.88;;;110.50;;
55015;SDS011;40919;43.236;21.590;2023-02-01T17:18:21;211.70;;;136.18;;
55015;SDS011;40919;43.236;21.590;2023-02-01T17:20:47;269.90;;;163.70;;
55015;SDS011;40919;43.236;21.590;2023-02-01T17:23:16;357.25;;;215.02;;
55015;SDS011;40919;43.236;21.590;2023-02-01T17:25:41;285.08;;;171.68;;
55015;SDS011;40919;43.236;21.590;2023-02-01T17:28:07;221.05;;;135.05;;
55015;SDS011;40919;43.236;21.590;2023-02-01T17:30:33;244.07;;;154.23;;
55015;SDS011;40919;43.236;21.590;2023-02-01T17:32:59;213.70;;;131.52;;
55015;SDS011;40919;43.236;21.590;2023-02-01T17:35:25;208.05;;;128.25;;